Welcome to Northern Hawkes Bay. New Zealand.
PWS Header
      nz Flag



Hit Counter


W3C Valid W3C Valid logo


    Wairoa

Select any of the Stations below to visit their websites.










Historic Data from Weather Underground
Select the location of interest below. Wairoa is the default. Please have patience, this Data is slow to load in.
Northern Hawkes Bay Historical Data
Daily Summary for November 3, 2017 Units:  Metric    English   Both
« Previous Day
Next Day »
Daily Weekly Monthly Yearly Custom
  High: Low: Average:
Temperature: 21.2 °C 10.9 °C 16.8 °C
Dew Point: 14.7 °C 9.2 °C 12.4 °C
Humidity: 91% 57% 76%
Wind Speed: 24.5km/h 0.0km/h 6km/h
Wind Gust: 37.8km/h - -
Wind- - West
Pressure: 1021.9 hPa 1013.4 hPa -
Precipitation: 0.0 mm    
Historical Graphs
 
 
Tabular Data for November 3, 2017
Time Temperature Dew Point Pressure Wind Wind Speed Wind Gust Humidity Rainfall Rate (Hourly) solar
00:03 12.5 °C 9.5 °C 1021.9 hPa Calm   1.1 km/h 82% 0.0 mm 0 W/m2
00:08 12.4 °C 9.4 °C 1021.9 hPa Calm   1.1 km/h 82% 0.0 mm 0 W/m2
00:13 12.3 °C 9.3 °C 1021.9 hPa Calm     82% 0.0 mm 0 W/m2
00:18 12.3 °C 9.5 °C 1021.9 hPa Calm     83% 0.0 mm 0 W/m2
00:23 12.4 °C 9.6 °C 1021.9 hPa Calm     83% 0.0 mm 0 W/m2
00:28 12.6 °C 9.8 °C 1021.6 hPa Calm   2.6 km/h 83% 0.0 mm 0 W/m2
00:33 12.7 °C 9.9 °C 1021.6 hPa Calm   2.6 km/h 83% 0.0 mm 0 W/m2
00:38 12.4 °C 9.4 °C 1021.6 hPa Calm     82% 0.0 mm 0 W/m2
00:43 12.0 °C 9.2 °C 1021.6 hPa Calm     83% 0.0 mm 0 W/m2
00:48 12.0 °C 9.2 °C 1021.6 hPa Calm     83% 0.0 mm 0 W/m2
00:53 12.0 °C 9.2 °C 1021.2 hPa Calm   2.6 km/h 83% 0.0 mm 0 W/m2
00:58 12.3 °C 9.7 °C 1021.2 hPa Calm   2.6 km/h 84% 0.0 mm 0 W/m2
01:03 12.4 °C 9.8 °C 1021.2 hPa Calm   2.6 km/h 84% 0.0 mm 0 W/m2
01:08 12.6 °C 9.8 °C 1021.2 hPa Calm     83% 0.0 mm 0 W/m2
01:13 12.7 °C 9.9 °C 1021.2 hPa Calm     83% 0.0 mm 0 W/m2
01:18 12.6 °C 9.8 °C 1021.2 hPa Calm     83% 0.0 mm 0 W/m2
01:23 12.2 °C 9.4 °C 1020.9 hPa Calm     83% 0.0 mm 0 W/m2
01:28 12.0 °C 9.2 °C 1020.9 hPa Calm     83% 0.0 mm 0 W/m2
01:33 11.8 °C 9.2 °C 1020.9 hPa Calm     84% 0.0 mm 0 W/m2
01:38 11.8 °C 9.4 °C 1020.9 hPa Calm     85% 0.0 mm 0 W/m2
01:43 11.6 °C 9.2 °C 1020.9 hPa Calm     85% 0.0 mm 0 W/m2
01:48 11.5 °C 9.2 °C 1020.9 hPa Calm     86% 0.0 mm 0 W/m2
01:53 11.7 °C 9.6 °C 1020.5 hPa Calm     87% 0.0 mm 0 W/m2
01:58 11.8 °C 9.9 °C 1020.5 hPa Calm     88% 0.0 mm 0 W/m2
02:03 12.0 °C 9.9 °C 1020.5 hPa Calm     87% 0.0 mm 0 W/m2
02:08 12.1 °C 9.8 °C 1020.5 hPa Calm     86% 0.0 mm 0 W/m2
02:13 12.0 °C 9.6 °C 1020.2 hPa Calm     85% 0.0 mm 0 W/m2
02:18 11.8 °C 9.6 °C 1020.2 hPa Calm     86% 0.0 mm 0 W/m2
02:23 11.6 °C 9.3 °C 1020.2 hPa Calm     86% 0.0 mm 0 W/m2
02:28 11.5 °C 9.4 °C 1019.9 hPa Calm     87% 0.0 mm 0 W/m2
02:33 11.4 °C 9.3 °C 1020.2 hPa Calm     87% 0.0 mm 0 W/m2
02:38 11.4 °C 9.5 °C 1019.9 hPa Calm     88% 0.0 mm 0 W/m2
02:57 11.2 °C 9.4 °C 1019.9 hPa Calm     89% 0.0 mm 0 W/m2
03:02 11.3 °C 9.6 °C 1019.9 hPa Calm     89% 0.0 mm 0 W/m2
03:07 11.4 °C 9.7 °C 1019.9 hPa Calm     89% 0.0 mm 0 W/m2
03:12 11.4 °C 9.7 °C 1019.9 hPa Calm     89% 0.0 mm 0 W/m2
03:17 11.4 °C 9.7 °C 1019.5 hPa Calm     89% 0.0 mm 0 W/m2
03:22 11.3 °C 9.6 °C 1019.9 hPa Calm     89% 0.0 mm 0 W/m2
03:27 11.4 °C 9.8 °C 1019.5 hPa Calm     90% 0.0 mm 0 W/m2
03:32 11.4 °C 9.8 °C 1019.9 hPa Calm     90% 0.0 mm 0 W/m2
03:37 11.4 °C 9.7 °C 1019.5 hPa Calm     89% 0.0 mm 0 W/m2
03:42 11.3 °C 9.6 °C 1019.5 hPa Calm     89% 0.0 mm 0 W/m2
03:47 11.3 °C 9.6 °C 1019.5 hPa Calm     89% 0.0 mm 0 W/m2
03:52 11.4 °C 9.7 °C 1019.5 hPa Calm     89% 0.0 mm 0 W/m2
03:57 11.3 °C 9.6 °C 1019.5 hPa Calm     89% 0.0 mm 0 W/m2
04:02 11.1 °C 9.3 °C 1019.5 hPa Calm     89% 0.0 mm 0 W/m2
04:07 10.9 °C 9.3 °C 1019.5 hPa Calm     90% 0.0 mm 0 W/m2
04:12 10.9 °C 9.3 °C 1019.2 hPa Calm     90% 0.0 mm 0 W/m2
04:18 10.9 °C 9.5 °C 1019.2 hPa Calm     91% 0.0 mm 0 W/m2
04:23 10.9 °C 9.5 °C 1019.2 hPa Calm     91% 0.0 mm 0 W/m2
04:28 11.1 °C 9.7 °C 1018.8 hPa Calm     91% 0.0 mm 0 W/m2
04:33 11.5 °C 10.1 °C 1018.8 hPa Calm     91% 0.0 mm 0 W/m2
04:38 11.5 °C 9.9 °C 1018.8 hPa Calm     90% 0.0 mm 0 W/m2
04:43 11.8 °C 10.2 °C 1018.8 hPa Calm     90% 0.0 mm 0 W/m2
04:48 11.7 °C 9.9 °C 1018.5 hPa Calm     89% 0.0 mm 0 W/m2
04:53 11.1 °C 9.2 °C 1018.5 hPa Calm     88% 0.0 mm 0 W/m2
04:58 11.1 °C 9.3 °C 1018.5 hPa Calm     89% 0.0 mm 0 W/m2
05:03 11.1 °C 9.5 °C 1018.5 hPa Calm     90% 0.0 mm 0 W/m2
05:07 11.3 °C 9.9 °C 1018.5 hPa Calm     91% 0.0 mm 0 W/m2
05:12 11.4 °C 10.0 °C 1018.5 hPa Calm     91% 0.0 mm 0 W/m2
05:17 11.6 °C 10.2 °C 1018.5 hPa Calm     91% 0.0 mm 0 W/m2
05:22 11.6 °C 10.0 °C 1018.5 hPa Calm     90% 0.0 mm 0 W/m2
05:27 11.7 °C 9.9 °C 1018.5 hPa Calm     89% 0.0 mm 0 W/m2
05:32 11.9 °C 10.3 °C 1018.5 hPa Calm   1.1 km/h 90% 0.0 mm 0 W/m2
05:37 12.1 °C 10.2 °C 1018.5 hPa Calm   1.1 km/h 88% 0.0 mm 0 W/m2
05:42 12.0 °C 9.9 °C 1018.5 hPa Calm     87% 0.0 mm 0 W/m2
05:47 11.8 °C 9.9 °C 1018.5 hPa Calm     88% 0.0 mm 0 W/m2
05:52 11.8 °C 10.1 °C 1018.2 hPa Calm     89% 0.0 mm 0 W/m2
05:57 12.1 °C 10.2 °C 1018.2 hPa Calm     88% 0.0 mm 0 W/m2
06:02 12.4 °C 10.4 °C 1018.5 hPa Calm     88% 0.0 mm 0 W/m2
06:07 12.4 °C 10.4 °C 1018.2 hPa Calm     88% 0.0 mm 3 W/m2
06:12 12.4 °C 10.3 °C 1018.5 hPa Calm     87% 0.0 mm 5 W/m2
06:17 12.2 °C 9.9 °C 1018.2 hPa Calm     86% 0.0 mm 9 W/m2
06:22 12.1 °C 10.0 °C 1018.5 hPa Calm     87% 0.0 mm 12 W/m2
06:27 12.1 °C 10.0 °C 1018.5 hPa Calm     87% 0.0 mm 16 W/m2
06:32 12.1 °C 10.0 °C 1018.5 hPa Calm     87% 0.0 mm 31 W/m2
06:37 12.5 °C 10.6 °C 1018.2 hPa Calm     88% 0.0 mm 53 W/m2
06:42 13.0 °C 11.1 °C 1018.2 hPa Calm     88% 0.0 mm 35 W/m2
06:47 13.2 °C 11.1 °C 1018.2 hPa Calm     87% 0.0 mm 26 W/m2
06:52 13.1 °C 10.8 °C 1018.2 hPa Calm     86% 0.0 mm 27 W/m2
06:57 12.9 °C 10.4 °C 1018.2 hPa Calm     85% 0.0 mm 29 W/m2
07:02 12.8 °C 10.5 °C 1018.2 hPa Calm     86% 0.0 mm 30 W/m2
07:07 12.7 °C 10.4 °C 1018.5 hPa Calm     86% 0.0 mm 31 W/m2
07:12 12.6 °C 10.5 °C 1018.5 hPa Calm   2.6 km/h 87% 0.0 mm 33 W/m2
07:17 12.6 °C 10.7 °C 1018.2 hPa Calm   2.6 km/h 88% 0.0 mm 39 W/m2
07:22 12.6 °C 10.7 °C 1018.5 hPa Calm   2.6 km/h 88% 0.0 mm 47 W/m2
07:27 12.7 °C 10.8 °C 1018.5 hPa Calm     88% 0.0 mm 60 W/m2
07:32 12.8 °C 10.9 °C 1018.2 hPa Calm     88% 0.0 mm 66 W/m2
07:37 13.1 °C 11.2 °C 1018.2 hPa Calm     88% 0.0 mm 74 W/m2
07:42 13.4 °C 11.4 °C 1018.2 hPa Calm     88% 0.0 mm 84 W/m2
07:47 13.7 °C 11.8 °C 1018.5 hPa Calm     88% 0.0 mm 91 W/m2
07:52 14.0 °C 11.7 °C 1018.2 hPa Calm     86% 0.0 mm 98 W/m2
07:57 14.2 °C 11.9 °C 1018.2 hPa Calm     86% 0.0 mm 109 W/m2
08:02 14.4 °C 12.1 °C 1018.2 hPa Calm     86% 0.0 mm 101 W/m2
08:07 14.8 °C 12.3 °C 1018.2 hPa Calm     85% 0.0 mm 120 W/m2
08:12 15.1 °C 12.2 °C 1018.5 hPa Calm   2.6 km/h 83% 0.0 mm 127 W/m2
08:17 15.0 °C 12.2 °C 1018.2 hPa Calm   6.1 km/h 83% 0.0 mm 127 W/m2
08:22 15.1 °C 12.1 °C 1018.2 hPa Calm   6.1 km/h 82% 0.0 mm 116 W/m2
08:27 15.5 °C 12.3 °C 1018.2 hPa Calm   3.5 km/h 81% 0.0 mm 120 W/m2
08:32 16.2 °C 12.9 °C 1018.2 hPa Calm     81% 0.0 mm 124 W/m2
08:37 16.7 °C 12.8 °C 1018.2 hPa Calm     78% 0.0 mm 120 W/m2
08:42 16.4 °C 12.2 °C 1018.2 hPa Calm     76% 0.0 mm 118 W/m2
08:47 16.4 °C 12.4 °C 1018.2 hPa Calm     77% 0.0 mm 128 W/m2
08:52 16.8 °C 12.8 °C 1018.2 hPa Calm   2.6 km/h 77% 0.0 mm 240 W/m2
08:57 17.8 °C 12.7 °C 1017.8 hPa NNE 2.6 km/h 13.4 km/h 72% 0.0 mm 157 W/m2
09:02 18.4 °C 13.1 °C 1017.8 hPa NNE 6.1 km/h 13.4 km/h 71% 0.0 mm 380 W/m2
09:07 19.5 °C 13.4 °C 1017.8 hPa NNE 9.7 km/h 13.4 km/h 68% 0.0 mm 411 W/m2
09:12 20.0 °C 13.2 °C 1018.2 hPa North 2.6 km/h 13.4 km/h 65% 0.0 mm 304 W/m2
09:17 19.9 °C 12.9 °C 1017.8 hPa NNW 7.2 km/h 13.4 km/h 64% 0.0 mm 241 W/m2
09:22 19.6 °C 12.8 °C 1017.8 hPa NNW 2.6 km/h 13.4 km/h 65% 0.0 mm 244 W/m2
09:27 19.7 °C 12.9 °C 1017.8 hPa North 6.1 km/h 13.4 km/h 65% 0.0 mm 367 W/m2
09:32 20.1 °C 12.8 °C 1017.5 hPa North 6.1 km/h 12.2 km/h 63% 0.0 mm 323 W/m2
09:37 20.2 °C 12.4 °C 1017.8 hPa NNW 8.7 km/h 18.3 km/h 61% 0.0 mm 420 W/m2
09:42 20.5 °C 12.7 °C 1017.8 hPa NNW 7.2 km/h 18.3 km/h 61% 0.0 mm 377 W/m2
09:47 20.2 °C 11.9 °C 1017.8 hPa NW 8.7 km/h 19.5 km/h 59% 0.0 mm 211 W/m2
09:52 20.0 °C 12.3 °C 1017.8 hPa NW 13.4 km/h 19.5 km/h 61% 0.0 mm 219 W/m2
09:57 19.7 °C 12.2 °C 1017.8 hPa NW 5.0 km/h 17.2 km/h 62% 0.0 mm 238 W/m2
10:02 19.8 °C 12.6 °C 1017.5 hPa NNW 6.1 km/h 17.2 km/h 63% 0.0 mm 334 W/m2
10:07 20.1 °C 12.3 °C 1017.8 hPa North 7.2 km/h 17.2 km/h 61% 0.0 mm 403 W/m2
10:12 20.4 °C 12.4 °C 1017.8 hPa NNW 8.7 km/h 17.2 km/h 60% 0.0 mm 464 W/m2
10:17 20.5 °C 11.7 °C 1017.8 hPa NNW 3.5 km/h 19.5 km/h 57% 0.0 mm 295 W/m2
10:22 20.5 °C 12.2 °C 1017.8 hPa NNW 5.0 km/h 19.5 km/h 59% 0.0 mm 288 W/m2
10:27 20.5 °C 12.5 °C 1017.8 hPa NW 12.2 km/h 19.5 km/h 60% 0.0 mm 353 W/m2
10:32 20.2 °C 11.9 °C 1017.8 hPa NW 7.2 km/h 20.9 km/h 59% 0.0 mm 262 W/m2
10:37 20.1 °C 12.3 °C 1017.8 hPa NW 9.7 km/h 20.9 km/h 61% 0.0 mm 252 W/m2
10:42 19.9 °C 12.9 °C 1017.8 hPa NW 13.4 km/h 23.3 km/h 64% 0.0 mm 270 W/m2
10:47 19.8 °C 12.8 °C 1017.8 hPa NW 7.2 km/h 24.5 km/h 64% 0.0 mm 295 W/m2
10:52 19.9 °C 12.7 °C 1017.8 hPa NW 5.0 km/h 24.5 km/h 63% 0.0 mm 316 W/m2
10:57 19.9 °C 12.4 °C 1017.8 hPa NNW 11.1 km/h 25.6 km/h 62% 0.0 mm 417 W/m2
11:02 20.0 °C 12.8 °C 1017.8 hPa NNW 12.2 km/h 25.6 km/h 63% 0.0 mm 381 W/m2
11:07 20.2 °C 12.9 °C 1017.8 hPa NW 12.2 km/h 23.3 km/h 63% 0.0 mm 340 W/m2
11:12 19.9 °C 13.1 °C 1017.8 hPa NW 11.1 km/h 23.3 km/h 65% 0.0 mm 245 W/m2
11:17 19.2 °C 12.9 °C 1017.8 hPa NW 13.4 km/h 23.3 km/h 67% 0.0 mm 200 W/m2
11:22 18.8 °C 13.4 °C 1017.8 hPa NNW 9.7 km/h 23.3 km/h 71% 0.0 mm 240 W/m2
11:27 18.6 °C 13.9 °C 1017.8 hPa NNW 11.1 km/h 18.3 km/h 74% 0.0 mm 309 W/m2
11:32 18.8 °C 14.3 °C 1017.8 hPa NNW 5.0 km/h 17.2 km/h 75% 0.0 mm 378 W/m2
11:37 19.2 °C 13.6 °C 1017.5 hPa NNW 8.7 km/h 15.8 km/h 70% 0.0 mm 343 W/m2
11:42 19.4 °C 13.8 °C 1017.5 hPa NNW 2.6 km/h 15.8 km/h 70% 0.0 mm 285 W/m2
11:47 19.7 °C 14.3 °C 1017.5 hPa NNW 8.7 km/h 15.8 km/h 71% 0.0 mm 293 W/m2
11:52 19.7 °C 14.1 °C 1017.5 hPa North 2.6 km/h 14.8 km/h 70% 0.0 mm 459 W/m2
11:57 20.0 °C 13.9 °C 1017.2 hPa North 3.5 km/h 14.8 km/h 68% 0.0 mm 329 W/m2
12:02 19.8 °C 14.2 °C 1017.2 hPa NNW 6.1 km/h 13.4 km/h 70% 0.0 mm 403 W/m2
12:07 19.9 °C 14.1 °C 1017.2 hPa NNW 7.2 km/h 19.5 km/h 69% 0.0 mm 310 W/m2
12:12 19.9 °C 13.6 °C 1017.2 hPa North 11.1 km/h 19.5 km/h 67% 0.0 mm 246 W/m2
12:17 19.6 °C 13.6 °C 1016.8 hPa North 6.1 km/h 20.9 km/h 68% 0.0 mm 195 W/m2
12:22 19.4 °C 13.3 °C 1016.8 hPa NNW 11.1 km/h 20.9 km/h 68% 0.0 mm 180 W/m2
12:27 19.4 °C 13.8 °C 1016.8 hPa North 5.0 km/h 17.2 km/h 70% 0.0 mm 187 W/m2
12:32 19.5 °C 13.7 °C 1016.8 hPa North 8.7 km/h 20.9 km/h 69% 0.0 mm 241 W/m2
12:37 19.5 °C 13.7 °C 1016.8 hPa North 8.7 km/h 20.9 km/h 69% 0.0 mm 280 W/m2
12:42 19.7 °C 13.7 °C 1016.8 hPa North 11.1 km/h 20.9 km/h 68% 0.0 mm 285 W/m2
12:47 19.9 °C 14.1 °C 1016.8 hPa North 15.8 km/h 20.9 km/h 69% 0.0 mm 300 W/m2
12:52 19.8 °C 13.7 °C 1016.8 hPa North 9.7 km/h 24.5 km/h 68% 0.0 mm 288 W/m2
12:57 19.8 °C 13.9 °C 1016.8 hPa North 8.7 km/h 24.5 km/h 69% 0.0 mm 263 W/m2
13:02 20.0 °C 14.2 °C 1016.8 hPa NNW 7.2 km/h 17.2 km/h 69% 0.0 mm 315 W/m2
13:07 20.1 °C 13.8 °C 1016.8 hPa NNW 8.7 km/h 21.9 km/h 67% 0.0 mm 366 W/m2
13:12 20.1 °C 14.0 °C 1016.8 hPa NNW 7.2 km/h 21.9 km/h 68% 0.0 mm 292 W/m2
13:17 20.1 °C 14.2 °C 1016.5 hPa North 12.2 km/h 21.9 km/h 69% 0.0 mm 297 W/m2
13:22 20.1 °C 14.0 °C 1016.5 hPa NNE 5.0 km/h 17.2 km/h 68% 0.0 mm 274 W/m2
13:27 20.1 °C 14.2 °C 1016.5 hPa North 9.7 km/h 17.2 km/h 69% 0.0 mm 276 W/m2
13:32 19.9 °C 14.7 °C 1016.5 hPa North 9.7 km/h 20.9 km/h 72% 0.0 mm 260 W/m2
13:37 20.0 °C 14.6 °C 1016.5 hPa North 8.7 km/h 20.9 km/h 71% 0.0 mm 304 W/m2
13:42 20.3 °C 14.7 °C 1016.5 hPa North 13.4 km/h 20.9 km/h 70% 0.0 mm 358 W/m2
13:47 20.8 °C 14.2 °C 1016.5 hPa NNW 11.1 km/h 20.9 km/h 66% 0.0 mm 298 W/m2
13:52 20.5 °C 13.2 °C 1016.1 hPa NW 15.8 km/h 31.7 km/h 63% 0.0 mm 297 W/m2
13:57 20.3 °C 13.3 °C 1016.1 hPa NNW 13.4 km/h 31.7 km/h 64% 0.0 mm 202 W/m2
14:02 20.2 °C 13.2 °C 1016.5 hPa NNW 17.2 km/h 31.7 km/h 64% 0.0 mm 197 W/m2
14:07 20.2 °C 13.2 °C 1016.5 hPa NNW 24.5 km/h 31.7 km/h 64% 0.0 mm 196 W/m2
14:12 20.3 °C 13.3 °C 1016.5 hPa NNW 6.1 km/h 29.4 km/h 64% 0.0 mm 196 W/m2
14:17 20.3 °C 13.3 °C 1016.5 hPa NNW 5.0 km/h 29.4 km/h 64% 0.0 mm 172 W/m2
14:23 20.5 °C 13.4 °C 1016.1 hPa NNW 8.7 km/h 23.3 km/h 64% 0.0 mm 210 W/m2
14:28 20.6 °C 13.3 °C 1016.1 hPa North 6.1 km/h 19.5 km/h 63% 0.0 mm 226 W/m2
14:33 20.8 °C 13.5 °C 1016.1 hPa NNW 11.1 km/h 21.9 km/h 63% 0.0 mm 237 W/m2
14:38 20.9 °C 13.6 °C 1016.1 hPa NNW 7.2 km/h 21.9 km/h 63% 0.0 mm 250 W/m2
14:43 21.0 °C 13.4 °C 1015.8 hPa North 11.1 km/h 21.9 km/h 62% 0.0 mm 253 W/m2
14:48 21.0 °C 13.4 °C 1015.8 hPa North 7.2 km/h 21.9 km/h 62% 0.0 mm 258 W/m2
14:53 21.2 °C 13.9 °C 1015.8 hPa NNW 7.2 km/h 18.3 km/h 63% 0.0 mm 265 W/m2
14:58 21.2 °C 13.9 °C 1015.5 hPa North 9.7 km/h 18.3 km/h 63% 0.0 mm 269 W/m2
15:02 21.2 °C 13.9 °C 1015.5 hPa North 11.1 km/h 19.5 km/h 63% 0.0 mm 248 W/m2
15:07 21.0 °C 13.4 °C 1015.5 hPa North 8.7 km/h 20.9 km/h 62% 0.0 mm 249 W/m2
15:12 21.0 °C 13.7 °C 1015.5 hPa North 11.1 km/h 23.3 km/h 63% 0.0 mm 220 W/m2
15:17 21.0 °C 13.7 °C 1015.5 hPa NNW 7.2 km/h 23.3 km/h 63% 0.0 mm 184 W/m2
15:22 20.9 °C 13.8 °C 1015.5 hPa NNW 9.7 km/h 17.2 km/h 64% 0.0 mm 157 W/m2
15:27 20.8 °C 13.8 °C 1015.5 hPa NNW 7.2 km/h 21.9 km/h 64% 0.0 mm 125 W/m2
15:32 20.5 °C 13.4 °C 1015.1 hPa NNW 9.7 km/h 23.3 km/h 64% 0.0 mm 102 W/m2
15:37 20.3 °C 13.5 °C 1015.1 hPa NW 15.8 km/h 23.3 km/h 65% 0.0 mm 91 W/m2
15:42 20.2 °C 13.2 °C 1014.8 hPa NW 12.2 km/h 20.9 km/h 64% 0.0 mm 100 W/m2
15:47 20.1 °C 13.3 °C 1015.1 hPa NW 12.2 km/h 20.9 km/h 65% 0.0 mm 114 W/m2
15:52 20.2 °C 13.7 °C 1014.8 hPa North 11.1 km/h 17.2 km/h 66% 0.0 mm 130 W/m2
15:57 20.1 °C 13.6 °C 1014.8 hPa North 8.7 km/h 20.9 km/h 66% 0.0 mm 153 W/m2
16:02 20.0 °C 13.4 °C 1015.1 hPa North 5.0 km/h 20.9 km/h 66% 0.0 mm 192 W/m2
16:07 20.2 °C 13.7 °C 1014.8 hPa North 3.5 km/h 20.9 km/h 66% 0.0 mm 224 W/m2
16:16 20.2 °C 13.7 °C 1014.8 hPa North 9.7 km/h 24.5 km/h 66% 0.0 mm 190 W/m2
16:22 20.0 °C 13.4 °C 1014.8 hPa North 6.1 km/h 21.9 km/h 66% 0.0 mm 170 W/m2
16:24 20.0 °C 13.7 °C 1014.8 hPa North 11.1 km/h 21.9 km/h 67% 0.0 mm 171 W/m2
16:30 19.8 °C 13.5 °C 1014.8 hPa North 20.9 km/h 27.0 km/h 67% 0.0 mm 168 W/m2
16:35 19.7 °C 13.7 °C 1014.8 hPa North 8.7 km/h 27.0 km/h 68% 0.0 mm 152 W/m2
16:40 19.6 °C 13.6 °C 1014.8 hPa North 14.8 km/h 25.6 km/h 68% 0.0 mm 153 W/m2
16:45 19.4 °C 13.8 °C 1014.8 hPa North 6.1 km/h 25.6 km/h 70% 0.0 mm 118 W/m2
16:50 19.3 °C 13.7 °C 1014.8 hPa North 5.0 km/h 25.6 km/h 70% 0.0 mm 95 W/m2
16:55 19.2 °C 13.8 °C 1014.8 hPa North 12.2 km/h 21.9 km/h 71% 0.0 mm 75 W/m2
17:00 19.0 °C 13.6 °C 1014.8 hPa North 11.1 km/h 24.5 km/h 71% 0.0 mm 62 W/m2
17:04 18.9 °C 14.2 °C 1014.4 hPa NNE 7.2 km/h 24.5 km/h 74% 0.0 mm 58 W/m2
17:09 18.8 °C 14.1 °C 1014.8 hPa NNE 9.7 km/h 17.2 km/h 74% 0.0 mm 65 W/m2
17:14 18.8 °C 13.9 °C 1014.4 hPa North 13.4 km/h 21.9 km/h 73% 0.0 mm 78 W/m2
17:17 18.8 °C 14.1 °C 1014.1 hPa NNW 12.2 km/h 21.9 km/h 74% 0.0 mm 86 W/m2
17:22 18.8 °C 14.1 °C 1014.1 hPa NNW 11.1 km/h 23.3 km/h 74% 0.0 mm 96 W/m2
17:27 18.8 °C 14.1 °C 1014.1 hPa North 8.7 km/h 23.3 km/h 74% 0.0 mm 88 W/m2
17:32 18.9 °C 13.9 °C 1014.1 hPa North 11.1 km/h 19.5 km/h 73% 0.0 mm 80 W/m2
17:37 18.9 °C 13.8 °C 1014.4 hPa North 12.2 km/h 24.5 km/h 72% 0.0 mm 87 W/m2
17:42 19.0 °C 13.6 °C 1014.1 hPa North 14.8 km/h 24.5 km/h 71% 0.0 mm 104 W/m2
17:47 19.1 °C 13.7 °C 1014.1 hPa NNW 8.7 km/h 23.3 km/h 71% 0.0 mm 103 W/m2
17:52 19.1 °C 13.7 °C 1014.1 hPa NNW 11.1 km/h 23.3 km/h 71% 0.0 mm 87 W/m2
17:57 19.0 °C 13.8 °C 1014.1 hPa North 9.7 km/h 17.2 km/h 72% 0.0 mm 67 W/m2
18:02 18.8 °C 13.9 °C 1014.1 hPa North 5.0 km/h 23.3 km/h 73% 0.0 mm 62 W/m2
18:07 18.8 °C 14.1 °C 1014.1 hPa North 13.4 km/h 23.3 km/h 74% 0.0 mm 63 W/m2
18:12 18.7 °C 14.0 °C 1013.8 hPa North 9.7 km/h 23.3 km/h 74% 0.0 mm 55 W/m2
18:15 18.7 °C 14.0 °C 1013.8 hPa North 12.2 km/h 21.9 km/h 74% 0.0 mm 41 W/m2
18:20 18.7 °C 14.0 °C 1014.1 hPa North 9.7 km/h 21.9 km/h 74% 0.0 mm 25 W/m2
18:25 18.5 °C 14.0 °C 1013.8 hPa North 13.4 km/h 21.9 km/h 75% 0.0 mm 25 W/m2
18:30 18.5 °C 14.0 °C 1013.8 hPa NNE 5.0 km/h 23.3 km/h 75% 0.0 mm 38 W/m2
18:36 18.5 °C 14.0 °C 1013.8 hPa North 6.1 km/h 23.3 km/h 75% 0.0 mm 38 W/m2
18:41 18.5 °C 14.0 °C 1014.1 hPa North 8.7 km/h 21.9 km/h 75% 0.0 mm 23 W/m2
18:46 18.4 °C 14.1 °C 1013.8 hPa NNE 11.1 km/h 18.3 km/h 76% 0.0 mm 20 W/m2
18:51 18.4 °C 14.1 °C 1013.8 hPa NNE 7.2 km/h 18.3 km/h 76% 0.0 mm 21 W/m2
18:56 18.4 °C 14.1 °C 1013.8 hPa North 8.7 km/h 18.3 km/h 76% 0.0 mm 23 W/m2
19:01 18.4 °C 14.1 °C 1013.8 hPa NNW 12.2 km/h 20.9 km/h 76% 0.0 mm 20 W/m2
19:06 18.5 °C 14.2 °C 1013.8 hPa NNW 8.7 km/h 20.9 km/h 76% 0.0 mm 12 W/m2
19:11 18.5 °C 14.2 °C 1013.8 hPa NNW 9.7 km/h 17.2 km/h 76% 0.0 mm 11 W/m2
19:14 18.6 °C 14.1 °C 1013.8 hPa NNW 13.4 km/h 17.2 km/h 75% 0.0 mm 10 W/m2
19:19 18.7 °C 14.2 °C 1013.8 hPa NNW 8.7 km/h 18.3 km/h 75% 0.0 mm 10 W/m2
19:24 18.7 °C 14.2 °C 1013.8 hPa NNW 9.7 km/h 19.5 km/h 75% 0.0 mm 8 W/m2
19:29 18.7 °C 14.0 °C 1014.1 hPa North 6.1 km/h 19.5 km/h 74% 0.0 mm 4 W/m2
19:34 18.7 °C 14.0 °C 1014.1 hPa NNW 3.5 km/h 14.8 km/h 74% 0.0 mm 2 W/m2
19:39 18.6 °C 14.1 °C 1014.1 hPa NNW 3.5 km/h 14.8 km/h 75% 0.0 mm 1 W/m2
19:44 18.6 °C 14.1 °C 1014.1 hPa North 11.1 km/h 19.5 km/h 75% 0.0 mm 0 W/m2
19:49 18.6 °C 14.1 °C 1014.1 hPa NNE 6.1 km/h 19.5 km/h 75% 0.0 mm 0 W/m2
19:54 18.5 °C 14.0 °C 1014.1 hPa NNE 11.1 km/h 19.5 km/h 75% 0.0 mm 0 W/m2
19:59 18.5 °C 14.0 °C 1014.1 hPa North 6.1 km/h 19.5 km/h 75% 0.0 mm 0 W/m2
20:04 18.4 °C 13.9 °C 1014.1 hPa North 6.1 km/h 19.5 km/h 75% 0.0 mm 0 W/m2
20:09 18.4 °C 13.9 °C 1014.1 hPa North 5.0 km/h 15.8 km/h 75% 0.0 mm 0 W/m2
20:14 18.3 °C 13.8 °C 1014.1 hPa North 6.1 km/h 15.8 km/h 75% 0.0 mm 0 W/m2
20:19 18.3 °C 13.8 °C 1014.1 hPa North 3.5 km/h 13.4 km/h 75% 0.0 mm 0 W/m2
20:24 18.4 °C 13.9 °C 1014.1 hPa North 7.2 km/h 20.9 km/h 75% 0.0 mm 0 W/m2
20:29 18.4 °C 13.9 °C 1014.1 hPa North 3.5 km/h 20.9 km/h 75% 0.0 mm 0 W/m2
20:34 18.4 °C 13.9 °C 1014.1 hPa North 8.7 km/h 15.8 km/h 75% 0.0 mm 0 W/m2
20:39 18.4 °C 13.9 °C 1014.1 hPa North 6.1 km/h 14.8 km/h 75% 0.0 mm 0 W/m2
20:44 18.3 °C 13.8 °C 1014.1 hPa North 6.1 km/h 14.8 km/h 75% 0.0 mm 0 W/m2
20:49 18.3 °C 13.8 °C 1014.1 hPa North 6.1 km/h 18.3 km/h 75% 0.0 mm 0 W/m2
20:54 18.3 °C 13.8 °C 1014.1 hPa North 5.0 km/h 18.3 km/h 75% 0.0 mm 0 W/m2
21:00 18.4 °C 13.9 °C 1014.1 hPa North 12.2 km/h 15.8 km/h 75% 0.0 mm 0 W/m2
21:05 18.3 °C 13.8 °C 1014.1 hPa NNW 7.2 km/h 20.9 km/h 75% 0.0 mm 0 W/m2
21:10 18.3 °C 13.8 °C 1014.1 hPa NNW 8.7 km/h 20.9 km/h 75% 0.0 mm 0 W/m2
21:15 18.4 °C 14.1 °C 1014.1 hPa NNW 11.1 km/h 20.9 km/h 76% 0.0 mm 0 W/m2
21:20 18.4 °C 13.9 °C 1014.1 hPa NNW 8.7 km/h 19.5 km/h 75% 0.0 mm 0 W/m2
21:25 18.2 °C 13.9 °C 1014.1 hPa NNW 17.2 km/h 24.5 km/h 76% 0.0 mm 0 W/m2
21:30 18.3 °C 14.0 °C 1014.1 hPa North 12.2 km/h 24.5 km/h 76% 0.0 mm 0 W/m2
21:35 18.4 °C 14.1 °C 1014.1 hPa NNW 11.1 km/h 24.5 km/h 76% 0.0 mm 0 W/m2
21:40 18.5 °C 14.0 °C 1014.1 hPa NNW 11.1 km/h 24.5 km/h 75% 0.0 mm 0 W/m2
21:46 18.6 °C 14.1 °C 1014.1 hPa North 14.8 km/h 23.3 km/h 75% 0.0 mm 0 W/m2
21:51 18.6 °C 14.1 °C 1013.8 hPa North 14.8 km/h 24.5 km/h 75% 0.0 mm 0 W/m2
21:56 18.6 °C 14.1 °C 1013.8 hPa North 12.2 km/h 25.6 km/h 75% 0.0 mm 0 W/m2
22:01 18.5 °C 14.0 °C 1014.1 hPa North 8.7 km/h 25.6 km/h 75% 0.0 mm 0 W/m2
22:06 18.5 °C 14.2 °C 1013.8 hPa North 11.1 km/h 24.5 km/h 76% 0.0 mm 0 W/m2
22:11 18.5 °C 14.2 °C 1013.8 hPa North 14.8 km/h 25.6 km/h 76% 0.0 mm 0 W/m2
22:16 18.5 °C 14.2 °C 1013.4 hPa NNW 12.2 km/h 31.7 km/h 76% 0.0 mm 0 W/m2
22:21 18.6 °C 14.1 °C 1013.8 hPa North 9.7 km/h 37.8 km/h 75% 0.0 mm 0 W/m2
22:26 18.6 °C 14.1 °C 1013.8 hPa North 14.8 km/h 37.8 km/h 75% 0.0 mm 0 W/m2
22:31 18.7 °C 14.2 °C 1013.8 hPa North 7.2 km/h 34.3 km/h 75% 0.0 mm 0 W/m2
22:36 18.6 °C 14.3 °C 1013.8 hPa North 12.2 km/h 34.3 km/h 76% 0.0 mm 0 W/m2
22:41 18.7 °C 14.4 °C 1013.8 hPa North 11.1 km/h 24.5 km/h 76% 0.0 mm 0 W/m2
22:46 18.7 °C 14.4 °C 1013.4 hPa NNW 6.1 km/h 24.5 km/h 76% 0.0 mm 0 W/m2
22:51 18.6 °C 14.3 °C 1013.8 hPa North 7.2 km/h 27.0 km/h 76% 0.0 mm 0 W/m2
22:56 18.7 °C 14.4 °C 1013.4 hPa North 14.8 km/h 27.0 km/h 76% 0.0 mm 0 W/m2
23:01 18.7 °C 14.4 °C 1013.8 hPa North 11.1 km/h 27.0 km/h 76% 0.0 mm 0 W/m2
23:06 18.6 °C 14.3 °C 1013.8 hPa North 15.8 km/h 27.0 km/h 76% 0.0 mm 0 W/m2
23:11 18.5 °C 14.2 °C 1013.4 hPa North 14.8 km/h 25.6 km/h 76% 0.0 mm 0 W/m2
23:16 18.6 °C 14.3 °C 1013.8 hPa NNW 9.7 km/h 24.5 km/h 76% 0.0 mm 0 W/m2
23:21 18.7 °C 14.4 °C 1013.4 hPa NNW 15.8 km/h 27.0 km/h 76% 0.0 mm 0 W/m2
23:26 18.9 °C 14.6 °C 1013.8 hPa NNW 14.8 km/h 27.0 km/h 76% 0.0 mm 0 W/m2
23:31 18.9 °C 14.4 °C 1013.8 hPa NNW 8.7 km/h 27.0 km/h 75% 0.0 mm 0 W/m2
23:36 18.9 °C 14.4 °C 1013.4 hPa NNW 17.2 km/h 31.7 km/h 75% 0.0 mm 0 W/m2
23:41 19.0 °C 14.3 °C 1013.8 hPa NNW 8.7 km/h 31.7 km/h 74% 0.0 mm 0 W/m2
23:46 19.1 °C 14.4 °C 1013.8 hPa North 15.8 km/h 28.0 km/h 74% 0.0 mm 0 W/m2
23:51 19.1 °C 14.4 °C 1013.4 hPa North 18.3 km/h 28.0 km/h 74% 0.0 mm 0 W/m2
23:56 19.0 °C 14.3 °C 1013.8 hPa North 11.1 km/h 30.6 km/h 74% 0.0 mm 0 W/m2
Northern Hawkes Bay. New Zealand Historic Data
Compliments of Weather Underground - 2.25 mb